createdAt,value
2022-11-14T00:00:23.484Z,31.57
2022-11-14T00:02:50.686Z,28.63
2022-11-14T00:05:17.726Z,29.70
2022-11-14T00:07:45.819Z,30.77
2022-11-14T00:10:13.118Z,25.93
2022-11-14T00:12:39.890Z,21.17
2022-11-14T00:15:07.819Z,29.97
2022-11-14T00:17:34.571Z,28.43
2022-11-14T00:20:01.443Z,27.60
2022-11-14T00:22:28.150Z,33.23
2022-11-14T00:24:56.455Z,25.57
2022-11-14T00:27:23.171Z,36.60
2022-11-14T00:29:50.001Z,69.83
2022-11-14T00:32:16.786Z,47.23
2022-11-14T00:34:43.596Z,29.03
2022-11-14T00:37:10.325Z,26.17
2022-11-14T00:39:37.181Z,27.07
2022-11-14T00:42:05.426Z,25.60
2022-11-14T00:44:32.353Z,27.77
2022-11-14T00:46:59.068Z,32.30
2022-11-14T00:49:25.796Z,28.50
2022-11-14T00:51:52.522Z,28.00
2022-11-14T00:54:19.264Z,32.13
2022-11-14T00:56:45.982Z,35.57
2022-11-14T00:59:14.078Z,35.40
2022-11-14T01:01:40.798Z,29.33
2022-11-14T01:04:07.585Z,27.90
2022-11-14T01:06:34.283Z,33.67
2022-11-14T01:09:01.042Z,23.00
2022-11-14T01:11:27.791Z,26.70
2022-11-14T01:13:54.489Z,24.40
2022-11-14T01:16:22.561Z,28.77
2022-11-14T01:18:49.263Z,23.70
2022-11-14T01:21:15.995Z,32.60
2022-11-14T01:23:42.801Z,31.00
2022-11-14T01:26:12.295Z,30.43
2022-11-14T01:28:53.562Z,24.80
2022-11-14T01:31:23.671Z,34.37
2022-11-14T01:33:51.786Z,33.80
2022-11-14T01:36:19.328Z,33.47
2022-11-14T01:38:46.535Z,28.20
2022-11-14T01:41:15.344Z,31.70
2022-11-14T01:43:42.729Z,38.97
2022-11-14T01:46:14.097Z,42.40
2022-11-14T01:48:45.690Z,34.23
2022-11-14T01:51:21.470Z,37.47
2022-11-14T01:53:50.667Z,40.93
2022-11-14T01:56:44.081Z,37.77
2022-11-14T01:59:13.528Z,37.20
2022-11-14T02:01:45.638Z,39.47
2022-11-14T02:04:18.228Z,29.97
2022-11-14T02:06:46.572Z,34.07
2022-11-14T02:09:13.827Z,31.37
2022-11-14T02:11:43.468Z,46.23
2022-11-14T02:14:10.895Z,28.03
2022-11-14T02:16:38.737Z,76.60
2022-11-14T02:19:05.699Z,36.23
2022-11-14T02:21:33.756Z,27.70
2022-11-14T02:24:00.492Z,28.07
2022-11-14T02:26:27.258Z,57.03
2022-11-14T02:28:53.970Z,80.07
2022-11-14T02:31:20.837Z,57.10
2022-11-14T02:33:47.565Z,34.50
2022-11-14T02:36:14.323Z,27.80
2022-11-14T02:38:42.389Z,28.83
2022-11-14T02:41:09.085Z,30.97
2022-11-14T02:43:35.998Z,29.40
2022-11-14T02:46:05.621Z,34.10
2022-11-14T02:48:32.867Z,32.03
2022-11-14T02:50:59.738Z,38.93
2022-11-14T02:53:26.569Z,27.50
2022-11-14T02:55:54.658Z,31.33
2022-11-14T02:58:21.388Z,26.53
2022-11-14T03:01:13.431Z,25.57
2022-11-14T03:03:34.882Z,30.43
2022-11-14T03:06:01.982Z,29.20
2022-11-14T03:08:29.090Z,26.00
2022-11-14T03:11:04.238Z,26.40
2022-11-14T03:13:31.094Z,28.97
2022-11-14T03:15:57.906Z,25.80
2022-11-14T03:18:24.674Z,21.77
2022-11-14T03:20:51.427Z,29.03
2022-11-14T03:23:18.142Z,24.30
2022-11-14T03:25:44.867Z,31.93
2022-11-14T03:28:12.934Z,30.13
2022-11-14T03:30:39.699Z,24.67
2022-11-14T03:33:06.415Z,27.57
2022-11-14T03:35:33.214Z,39.17
2022-11-14T03:37:59.956Z,39.43
2022-11-14T03:40:26.817Z,33.97
2022-11-14T03:42:53.546Z,34.70
2022-11-14T03:45:21.618Z,31.10
2022-11-14T03:47:48.350Z,44.00
2022-11-14T03:50:15.187Z,30.63
2022-11-14T03:52:41.990Z,37.27
2022-11-14T03:55:08.875Z,39.47
2022-11-14T03:57:35.593Z,37.70
2022-11-14T04:00:02.301Z,45.30
2022-11-14T04:02:30.337Z,28.27
2022-11-14T04:04:57.139Z,36.73
2022-11-14T04:07:23.970Z,33.07
2022-11-14T04:09:50.753Z,38.53
2022-11-14T04:12:17.595Z,34.77
2022-11-14T04:14:44.420Z,35.07
2022-11-14T04:17:11.227Z,41.00
2022-11-14T04:19:39.328Z,35.50
2022-11-14T04:22:06.063Z,33.03
2022-11-14T04:24:32.792Z,32.53
2022-11-14T04:26:59.538Z,37.87
2022-11-14T04:29:26.653Z,31.27
2022-11-14T04:31:53.423Z,36.93
2022-11-14T04:34:20.207Z,33.03
2022-11-14T04:36:48.308Z,31.07
2022-11-14T04:39:15.068Z,40.27
2022-11-14T04:41:41.799Z,35.17
2022-11-14T04:44:08.553Z,43.10
2022-11-14T04:46:35.364Z,38.53
2022-11-14T04:49:02.265Z,38.73
2022-11-14T04:51:28.992Z,35.67
2022-11-14T04:53:57.095Z,36.60
2022-11-14T04:56:23.849Z,36.77
2022-11-14T04:58:50.666Z,39.37
2022-11-14T05:01:17.513Z,31.80
2022-11-14T05:03:44.345Z,34.60
2022-11-14T05:06:11.206Z,37.67
2022-11-14T05:08:37.972Z,39.67
2022-11-14T05:11:06.197Z,37.87
2022-11-14T05:13:32.915Z,36.77
2022-11-14T05:15:59.668Z,37.17
2022-11-14T05:18:26.549Z,33.37
2022-11-14T05:20:53.297Z,38.87
2022-11-14T05:23:21.895Z,36.93
2022-11-14T05:25:59.314Z,36.67
2022-11-14T05:28:27.765Z,34.07
2022-11-14T05:31:00.924Z,30.67
2022-11-14T05:33:27.668Z,35.90
2022-11-14T05:35:54.420Z,38.13
2022-11-14T05:38:21.304Z,33.47
2022-11-14T05:40:48.040Z,37.07
2022-11-14T05:43:14.823Z,37.67
2022-11-14T05:45:43.051Z,37.67
2022-11-14T05:48:09.777Z,29.77
2022-11-14T05:50:36.534Z,36.27
2022-11-14T05:53:03.691Z,43.73
2022-11-14T05:55:30.386Z,38.43
2022-11-14T05:57:58.314Z,33.47
2022-11-14T06:00:25.385Z,35.93
2022-11-14T06:02:54.075Z,37.97
2022-11-14T06:05:20.904Z,32.47
2022-11-14T06:07:47.880Z,39.43
2022-11-14T06:10:14.713Z,38.70
2022-11-14T06:12:41.431Z,38.60
2022-11-14T06:15:08.831Z,38.03
2022-11-14T06:17:35.581Z,33.47
2022-11-14T06:20:04.569Z,35.60
2022-11-14T06:22:31.428Z,34.17
2022-11-14T06:24:58.222Z,32.67
2022-11-14T06:27:24.985Z,35.67
2022-11-14T06:29:51.724Z,39.97
2022-11-14T06:32:18.601Z,36.27
2022-11-14T06:34:45.356Z,29.10
2022-11-14T06:37:13.419Z,37.53
2022-11-14T06:39:40.160Z,42.67
2022-11-14T06:42:07.004Z,33.33
2022-11-14T06:44:33.818Z,29.17
2022-11-14T06:47:00.736Z,36.97
2022-11-14T06:49:27.480Z,44.83
2022-11-14T06:51:54.766Z,30.70
2022-11-14T06:54:22.859Z,35.23
2022-11-14T06:56:49.576Z,31.77
2022-11-14T06:59:16.413Z,27.07
2022-11-14T07:01:44.784Z,36.40
2022-11-14T07:04:11.514Z,32.67
2022-11-14T07:06:38.250Z,34.73
2022-11-14T07:09:05.132Z,32.27
2022-11-14T07:11:35.473Z,31.30
2022-11-14T07:14:03.227Z,27.50
2022-11-14T07:16:31.755Z,32.90
2022-11-14T07:18:59.388Z,36.37
2022-11-14T07:21:27.187Z,27.90
2022-11-14T07:23:54.162Z,30.57
2022-11-14T07:26:34.693Z,25.77
2022-11-14T07:29:03.126Z,32.13
2022-11-14T07:31:30.268Z,32.17
2022-11-14T07:33:57.101Z,32.73
2022-11-14T07:36:26.531Z,29.63
2022-11-14T07:38:53.301Z,29.50
2022-11-14T07:41:25.557Z,39.83
2022-11-14T07:43:52.400Z,32.20
2022-11-14T07:46:20.592Z,31.37
2022-11-14T07:48:47.393Z,31.70
2022-11-14T07:51:16.699Z,34.47
2022-11-14T07:53:43.634Z,32.90
2022-11-14T07:56:10.738Z,34.40
2022-11-14T07:58:38.719Z,34.17
2022-11-14T08:01:07.419Z,32.83
2022-11-14T08:03:35.637Z,36.20
2022-11-14T08:06:02.698Z,40.70
2022-11-14T08:08:29.666Z,34.73
2022-11-14T08:10:57.089Z,42.13
2022-11-14T08:13:33.220Z,32.10
2022-11-14T08:16:09.130Z,36.33
2022-11-14T08:18:40.470Z,33.83
2022-11-14T08:21:07.412Z,43.33
2022-11-14T08:23:34.308Z,39.43
2022-11-14T08:26:01.086Z,32.87
2022-11-14T08:28:28.505Z,35.70
2022-11-14T08:30:59.403Z,40.87
2022-11-14T08:33:26.365Z,31.07
2022-11-14T08:35:54.440Z,30.73
2022-11-14T08:38:21.265Z,32.57
2022-11-14T08:40:48.005Z,30.23
2022-11-14T08:43:14.701Z,39.77
2022-11-14T08:45:41.427Z,37.17
2022-11-14T08:48:08.202Z,37.03
2022-11-14T08:50:34.975Z,36.43
2022-11-14T08:53:03.065Z,27.10
2022-11-14T08:55:29.801Z,35.27
2022-11-14T08:57:56.525Z,34.53
2022-11-14T09:00:23.505Z,38.83
2022-11-14T09:02:50.330Z,37.73
2022-11-14T09:05:20.257Z,32.17
2022-11-14T09:07:46.980Z,33.57
2022-11-14T09:10:15.429Z,34.50
2022-11-14T09:12:42.225Z,31.40
2022-11-14T09:15:09.530Z,30.40
2022-11-14T09:17:36.269Z,35.57
2022-11-14T09:20:03.122Z,37.23
2022-11-14T09:22:31.386Z,35.50
2022-11-14T09:24:58.094Z,26.00
2022-11-14T09:27:27.899Z,30.17
2022-11-14T09:29:54.618Z,35.07
2022-11-14T09:32:21.323Z,38.63
2022-11-14T09:34:48.057Z,35.70
2022-11-14T09:37:14.936Z,37.20
2022-11-14T09:39:41.668Z,34.63
2022-11-14T09:42:29.094Z,41.67
2022-11-14T09:44:59.377Z,25.97
2022-11-14T09:47:29.894Z,39.13
2022-11-14T09:50:02.736Z,36.20
2022-11-14T09:52:36.451Z,34.80
2022-11-14T09:55:09.753Z,30.00
2022-11-14T09:57:36.695Z,25.23
2022-11-14T10:00:13.862Z,36.93
2022-11-14T10:02:48.599Z,30.40
2022-11-14T10:05:30.724Z,30.40
2022-11-14T10:08:15.028Z,24.40
2022-11-14T10:10:53.021Z,29.57
2022-11-14T10:13:36.886Z,31.20
2022-11-14T10:16:10.854Z,35.00
2022-11-14T10:18:58.290Z,31.43
2022-11-14T10:21:46.247Z,34.20
2022-11-14T10:24:31.245Z,31.90
2022-11-14T10:27:02.142Z,33.47
2022-11-14T10:30:03.087Z,31.30
2022-11-14T10:32:45.377Z,36.73
2022-11-14T10:35:16.468Z,31.77
2022-11-14T10:37:55.387Z,32.67
2022-11-14T10:40:25.711Z,28.83
2022-11-14T10:42:57.469Z,30.70
2022-11-14T10:45:28.167Z,30.67
2022-11-14T10:48:00.711Z,26.63
2022-11-14T10:50:34.065Z,33.90
2022-11-14T10:53:04.756Z,29.63
2022-11-14T10:55:57.789Z,32.20
2022-11-14T10:58:18.192Z,28.17
2022-11-14T11:00:44.988Z,30.77
2022-11-14T11:03:13.460Z,29.87
2022-11-14T11:05:50.281Z,22.43
2022-11-14T11:08:42.093Z,22.40
2022-11-14T11:11:12.775Z,25.50
2022-11-14T11:13:51.420Z,23.90
2022-11-14T11:16:21.482Z,25.30
2022-11-14T11:18:50.811Z,31.53
2022-11-14T11:21:19.697Z,28.43
2022-11-14T11:23:49.902Z,28.13
2022-11-14T11:26:20.277Z,23.90
2022-11-14T11:29:04.509Z,20.90
2022-11-14T11:31:50.039Z,31.33
2022-11-14T11:34:23.810Z,27.20
2022-11-14T11:36:55.410Z,28.40
2022-11-14T11:39:26.498Z,20.80
2022-11-14T11:42:09.305Z,24.80
2022-11-14T11:44:43.231Z,23.90
2022-11-14T11:47:14.331Z,25.73
2022-11-14T11:49:51.752Z,24.23
2022-11-14T11:52:28.439Z,20.90
2022-11-14T11:55:02.775Z,26.07
2022-11-14T11:57:35.164Z,22.43
2022-11-14T12:00:07.434Z,20.97
2022-11-14T12:02:40.393Z,22.97
2022-11-14T12:05:16.542Z,27.10
2022-11-14T12:07:51.030Z,22.57
2022-11-14T12:10:22.774Z,22.40
2022-11-14T12:13:12.107Z,25.17
2022-11-14T12:15:49.234Z,25.90
2022-11-14T12:18:34.017Z,23.53
2022-11-14T12:21:14.889Z,20.77
2022-11-14T12:24:11.306Z,20.60
2022-11-14T12:26:54.937Z,24.63
2022-11-14T12:29:40.189Z,19.73
2022-11-14T12:32:12.141Z,26.60
2022-11-14T12:34:41.245Z,27.13
2022-11-14T12:37:15.101Z,28.27
2022-11-14T12:39:41.981Z,22.43
2022-11-14T12:42:12.629Z,28.00
2022-11-14T12:44:40.183Z,26.20
2022-11-14T12:47:19.473Z,22.50
2022-11-14T12:50:00.766Z,25.90
2022-11-14T12:52:50.506Z,30.03
2022-11-14T12:55:53.201Z,21.93
2022-11-14T12:58:32.271Z,31.97
2022-11-14T13:01:10.848Z,24.83
2022-11-14T13:03:48.758Z,21.73
2022-11-14T13:06:22.830Z,23.63
2022-11-14T13:09:23.567Z,22.30
2022-11-14T13:11:50.492Z,17.03
2022-11-14T13:14:18.407Z,23.00
2022-11-14T13:16:45.227Z,21.27
2022-11-14T13:19:20.020Z,18.40
2022-11-14T13:22:31.754Z,17.97
2022-11-14T13:25:21.438Z,18.17
2022-11-14T13:28:08.083Z,17.30
2022-11-14T13:31:05.326Z,20.03
2022-11-14T13:33:42.055Z,18.80
2022-11-14T13:36:11.234Z,21.77
2022-11-14T13:39:05.309Z,20.77
2022-11-14T13:42:15.519Z,17.30
2022-11-14T13:45:36.350Z,21.07
2022-11-14T13:48:36.688Z,23.50
2022-11-14T13:51:36.264Z,18.13
2022-11-14T13:53:56.035Z,18.97
2022-11-14T13:56:31.146Z,18.73
2022-11-14T13:59:35.433Z,19.73
2022-11-14T14:02:20.703Z,23.13
2022-11-14T14:04:58.446Z,22.93
2022-11-14T14:07:33.087Z,16.97
2022-11-14T14:10:08.510Z,20.67
2022-11-14T14:12:48.961Z,18.93
2022-11-14T14:18:22.670Z,22.43
2022-11-14T14:20:57.936Z,21.80
2022-11-14T14:23:34.596Z,18.90
2022-11-14T14:26:10.598Z,17.80
2022-11-14T14:28:46.355Z,18.30
2022-11-14T14:31:16.528Z,21.97
2022-11-14T14:33:44.793Z,23.80
2022-11-14T14:36:19.607Z,16.40
2022-11-14T14:38:47.229Z,19.90
2022-11-14T14:41:16.416Z,23.37
2022-11-14T14:43:49.230Z,22.43
2022-11-14T14:46:26.871Z,19.67
2022-11-14T14:48:53.782Z,19.17
2022-11-14T14:51:30.378Z,21.17
2022-11-14T14:53:57.074Z,21.73
2022-11-14T14:56:24.934Z,23.47
2022-11-14T14:58:51.673Z,21.33
2022-11-14T15:01:22.154Z,18.00
2022-11-14T15:03:52.104Z,23.20
2022-11-14T15:06:23.885Z,21.60
2022-11-14T15:08:50.674Z,20.37
2022-11-14T15:11:17.531Z,22.50
2022-11-14T15:13:45.524Z,21.03
2022-11-14T15:16:12.867Z,17.97
2022-11-14T15:18:41.016Z,20.13
2022-11-14T15:21:10.743Z,18.70
2022-11-14T15:23:38.539Z,21.90
2022-11-14T15:26:12.537Z,21.90
2022-11-14T15:28:39.355Z,22.77
2022-11-14T15:31:06.372Z,19.67
2022-11-14T15:33:35.289Z,20.43
2022-11-14T15:36:08.213Z,20.37
2022-11-14T15:38:44.309Z,19.20
2022-11-14T15:41:21.865Z,16.80
2022-11-14T15:43:50.947Z,15.57
2022-11-14T15:46:38.854Z,21.37
2022-11-14T15:49:10.129Z,37.77
2022-11-14T15:51:44.604Z,20.07
2022-11-14T15:54:26.345Z,20.67
2022-11-14T15:56:55.273Z,20.93
2022-11-14T15:59:22.452Z,20.67
2022-11-14T16:01:51.643Z,17.80
2022-11-14T16:04:23.049Z,22.97
2022-11-14T16:06:51.191Z,21.30
2022-11-14T16:09:19.731Z,19.10
2022-11-14T16:11:49.152Z,16.77
2022-11-14T16:14:36.599Z,16.10
2022-11-14T16:17:06.692Z,21.77
2022-11-14T16:19:35.892Z,19.67
2022-11-14T16:22:04.050Z,23.90
2022-11-14T16:24:33.915Z,18.30
2022-11-14T16:27:05.924Z,23.57
2022-11-14T16:29:32.655Z,20.77
2022-11-14T16:31:59.431Z,20.10
2022-11-14T16:35:19.178Z,26.60
2022-11-14T16:38:24.087Z,25.20
2022-11-14T16:40:55.846Z,21.57
2022-11-14T16:43:22.625Z,18.97
2022-11-14T16:45:49.525Z,24.10
2022-11-14T16:48:16.271Z,23.07
2022-11-14T16:50:43.138Z,21.30
2022-11-14T16:53:11.238Z,23.07
2022-11-14T16:55:37.993Z,22.30
2022-11-14T16:58:04.730Z,23.87
2022-11-14T17:00:32.064Z,19.00
2022-11-14T17:02:58.775Z,21.57
2022-11-14T17:05:25.532Z,19.70
2022-11-14T17:07:52.258Z,28.50
2022-11-14T17:10:20.427Z,24.40
2022-11-14T17:12:47.201Z,24.70
2022-11-14T17:15:14.079Z,26.33
2022-11-14T17:17:40.787Z,24.93
2022-11-14T17:20:08.645Z,23.23
2022-11-14T17:22:35.422Z,27.70
2022-11-14T17:25:02.152Z,26.17
2022-11-14T17:27:30.214Z,24.03
2022-11-14T17:29:56.974Z,21.00
2022-11-14T17:32:23.733Z,17.70
2022-11-14T17:34:50.483Z,20.87
2022-11-14T17:37:17.200Z,21.33
2022-11-14T17:39:43.939Z,21.70
2022-11-14T17:42:10.673Z,23.23
2022-11-14T17:44:38.924Z,25.93
2022-11-14T17:47:05.675Z,22.97
2022-11-14T17:49:32.403Z,22.87
2022-11-14T17:51:59.138Z,22.93
2022-11-14T17:54:25.926Z,25.70
2022-11-14T17:56:55.072Z,19.93
2022-11-14T17:59:22.028Z,20.13
2022-11-14T18:01:50.224Z,22.87
2022-11-14T18:04:17.157Z,21.80
2022-11-14T18:06:44.415Z,26.23
2022-11-14T18:09:14.519Z,25.77
2022-11-14T18:11:41.425Z,21.40
2022-11-14T18:14:08.290Z,23.57
2022-11-14T18:16:57.578Z,22.20
2022-11-14T18:19:23.141Z,23.50
2022-11-14T18:21:53.445Z,23.23
2022-11-14T18:24:20.975Z,22.80
2022-11-14T18:26:47.687Z,22.67
2022-11-14T18:29:14.565Z,26.47
2022-11-14T18:31:41.456Z,24.70
2022-11-14T18:34:08.188Z,31.00
2022-11-14T18:36:42.896Z,23.90
2022-11-14T18:39:09.656Z,25.43
2022-11-14T18:41:36.384Z,25.03
2022-11-14T18:44:03.358Z,24.20
2022-11-14T18:46:34.406Z,25.00
2022-11-14T18:49:03.770Z,24.27
2022-11-14T18:51:30.681Z,18.33
2022-11-14T18:53:58.758Z,25.70
2022-11-14T18:56:26.029Z,27.13
2022-11-14T18:58:54.138Z,26.83
2022-11-14T19:01:23.016Z,29.07
2022-11-14T19:03:50.063Z,25.87
2022-11-14T19:06:17.196Z,26.50
2022-11-14T19:08:43.944Z,24.77
2022-11-14T19:11:14.035Z,24.17
2022-11-14T19:13:40.758Z,28.40
2022-11-14T19:16:07.890Z,21.90
2022-11-14T19:18:34.660Z,27.40
2022-11-14T19:21:03.124Z,22.30
2022-11-14T19:23:30.233Z,23.83
2022-11-14T19:25:58.843Z,21.90
2022-11-14T19:28:27.586Z,26.43
2022-11-14T19:30:54.318Z,17.40
2022-11-14T19:33:21.034Z,24.43
2022-11-14T19:35:47.750Z,26.23
2022-11-14T19:38:14.481Z,22.57
2022-11-14T19:40:41.174Z,27.27
2022-11-14T19:43:07.937Z,17.10
2022-11-14T19:45:36.307Z,20.87
2022-11-14T19:48:05.101Z,21.77
2022-11-14T19:50:31.863Z,22.67
2022-11-14T19:52:58.583Z,24.60
2022-11-14T19:55:25.568Z,23.33
2022-11-14T19:57:52.304Z,23.77
2022-11-14T20:00:19.476Z,20.20
2022-11-14T20:02:47.530Z,22.43
2022-11-14T20:05:14.335Z,19.87
2022-11-14T20:07:41.058Z,21.97
2022-11-14T20:10:08.722Z,19.67
2022-11-14T20:12:35.498Z,17.37
2022-11-14T20:15:02.314Z,24.90
2022-11-14T20:17:29.041Z,20.30
2022-11-14T20:19:57.387Z,21.43
2022-11-14T20:22:24.120Z,21.03
2022-11-14T20:24:50.878Z,24.43
2022-11-14T20:27:17.602Z,20.27
2022-11-14T20:29:44.338Z,22.13
2022-11-14T20:32:15.622Z,24.20
2022-11-14T20:34:42.663Z,22.03
2022-11-14T20:37:11.975Z,21.57
2022-11-14T20:39:38.938Z,23.53
2022-11-14T20:42:05.697Z,27.30
2022-11-14T20:44:32.559Z,22.77
2022-11-14T20:46:59.283Z,21.60
2022-11-14T20:49:26.127Z,24.27
2022-11-14T20:51:52.890Z,21.40
2022-11-14T20:54:21.066Z,17.83
2022-11-14T20:56:47.780Z,24.03
2022-11-14T20:59:14.645Z,20.60
2022-11-14T21:01:45.579Z,21.20
2022-11-14T21:04:12.360Z,26.67
2022-11-14T21:06:39.861Z,21.37
2022-11-14T21:09:06.627Z,26.03
2022-11-14T21:11:34.719Z,18.43
2022-11-14T21:14:01.556Z,18.60
2022-11-14T21:16:31.985Z,22.00
2022-11-14T21:18:58.997Z,18.57
2022-11-14T21:21:26.864Z,22.60
2022-11-14T21:23:54.418Z,27.27
2022-11-14T21:26:23.158Z,18.77
2022-11-14T21:28:54.300Z,18.40
2022-11-14T21:31:23.241Z,20.77
2022-11-14T21:33:51.413Z,18.07
2022-11-14T21:39:06.155Z,18.90
2022-11-14T21:41:33.470Z,17.43
2022-11-14T21:44:03.165Z,16.87
2022-11-14T21:46:29.898Z,21.90
2022-11-14T21:48:57.327Z,17.10
2022-11-14T21:51:25.734Z,21.43
2022-11-14T21:53:54.124Z,17.77
2022-11-14T21:56:23.009Z,20.43
2022-11-14T21:58:50.668Z,21.10
2022-11-14T22:01:20.301Z,18.30
2022-11-14T22:03:47.041Z,20.80
2022-11-14T22:06:13.728Z,16.00
2022-11-14T22:08:40.436Z,18.67
2022-11-14T22:11:07.229Z,16.50
2022-11-14T22:13:34.518Z,18.30
2022-11-14T22:16:04.635Z,18.20
2022-11-14T22:18:32.842Z,20.10
2022-11-14T22:20:59.863Z,18.03
2022-11-14T22:23:27.032Z,19.50
2022-11-14T22:25:55.279Z,23.13
2022-11-14T22:28:22.053Z,24.13
2022-11-14T22:30:49.027Z,23.03
2022-11-14T22:33:15.749Z,16.80
2022-11-14T22:35:43.817Z,17.73
2022-11-14T22:38:10.576Z,19.50
2022-11-14T22:40:37.426Z,16.03
2022-11-14T22:43:04.166Z,23.97
2022-11-14T22:45:31.025Z,14.73
2022-11-14T22:47:58.070Z,20.20
2022-11-14T22:50:24.856Z,22.47
2022-11-14T22:52:54.606Z,17.37
2022-11-14T22:55:21.499Z,15.67
2022-11-14T22:57:48.238Z,20.10
2022-11-14T23:00:17.253Z,22.60
2022-11-14T23:02:44.003Z,18.73
2022-11-14T23:05:10.736Z,21.23
2022-11-14T23:07:37.442Z,23.13
2022-11-14T23:10:06.663Z,22.50
2022-11-14T23:12:33.394Z,18.73
2022-11-14T23:15:00.116Z,21.23
2022-11-14T23:17:26.955Z,20.47
2022-11-14T23:19:53.700Z,18.30
2022-11-14T23:22:20.419Z,18.27
2022-11-14T23:24:47.154Z,18.57
2022-11-14T23:27:17.553Z,17.27
2022-11-14T23:29:44.307Z,28.47
2022-11-14T23:32:11.012Z,21.63
2022-11-14T23:34:37.719Z,21.60
2022-11-14T23:37:04.534Z,23.90
2022-11-14T23:39:31.295Z,21.93
2022-11-14T23:41:58.218Z,19.63
2022-11-14T23:44:26.551Z,20.13
2022-11-14T23:46:53.309Z,16.70
2022-11-14T23:49:20.050Z,20.70
2022-11-14T23:51:46.907Z,22.17
2022-11-14T23:54:13.627Z,18.60
2022-11-14T23:56:40.361Z,21.27
2022-11-14T23:59:07.076Z,16.93
